Contrarian — 2FAJ3 — position and weather

sailwx.info

Track history (hours):
 
Tides and Currents Weather Stations Pressure Air Temp Water Temp Dewpoint Dewpoint Depression Visibility Wind Speed Wind Dir Waves Ship Positions

Contrarian

Last reported at 2018-Jan-12 09:07 UTC. Time now 2018-May-24 06:27 UTC.
Position N 37°03' W 008°31'.
Warning: this ship's position is months out of date.

Length 20 m.

Type: Sailing vessel. MMSI: 235089609.

Date/timePositionNaut miles runAvg speedWind from/ knotsBaromVisibWave heightAir tempDewpointWater temp
2018-Jan-12 09:07N 37°03' W 008°31'158 7.0
2018-Jan-11 10:33N 36°02' W 005°30'0 5.8
2018-Jan-11 10:29N 36°02' W 005°29'3 5.6
2018-Jan-11 09:55N 36°03' W 005°26'3 7.0
2018-Jan-11 09:30N 36°06' W 005°24'4 7.2
2018-Jan-11 09:01N 36°09' W 005°22'0 0.8
2018-Jan-11 08:27N 36°09' W 005°21'0 0.0
2018-Jan-11 01:43N 36°09' W 005°21'1 2.4
2018-Jan-11 01:30N 36°09' W 005°22'3 5.8
2018-Jan-11 01:00N 36°06' W 005°20'3 6.5
2018-Jan-11 00:28N 36°08' W 005°17'  
Track history (hours):
 
Tides and Currents Weather Stations Pressure Air Temp Water Temp Dewpoint Dewpoint Depression Visibility Wind Speed Wind Dir Waves Ship Positions

Contrarian

Last reported at 2018-Jan-12 09:07 UTC. Time now 2018-May-24 06:27 UTC.
Position N 37°03' W 008°31'.
Warning: this ship's position is months out of date.

Length 20 m.

Type: Sailing vessel. MMSI: 235089609.

Date/timePositionNaut miles runAvg speedWind from/ knotsBaromVisibWave heightAir tempDewpointWater temp
2018-Jan-12 09:07N 37°03' W 008°31'158 7.0
2018-Jan-11 10:33N 36°02' W 005°30'0 5.8
2018-Jan-11 10:29N 36°02' W 005°29'3 5.6
2018-Jan-11 09:55N 36°03' W 005°26'3 7.0
2018-Jan-11 09:30N 36°06' W 005°24'4 7.2
2018-Jan-11 09:01N 36°09' W 005°22'0 0.8
2018-Jan-11 08:27N 36°09' W 005°21'0 0.0
2018-Jan-11 01:43N 36°09' W 005°21'1 2.4
2018-Jan-11 01:30N 36°09' W 005°22'3 5.8
2018-Jan-11 01:00N 36°06' W 005°20'3 6.5
2018-Jan-11 00:28N 36°08' W 005°17'  

Dump ship's entire track history